createdAt,value
2023-02-27T00:00:16.506Z,1.10
2023-02-27T00:02:46.188Z,1.10
2023-02-27T00:05:14.039Z,1.63
2023-02-27T00:07:41.233Z,1.80
2023-02-27T00:10:10.624Z,1.60
2023-02-27T00:12:38.805Z,1.38
2023-02-27T00:15:07.435Z,1.38
2023-02-27T00:17:34.358Z,1.55
2023-02-27T00:20:01.108Z,1.33
2023-02-27T00:22:27.905Z,1.20
2023-02-27T00:24:54.664Z,1.80
2023-02-27T00:27:21.616Z,1.60
2023-02-27T00:29:48.482Z,1.45
2023-02-27T00:32:15.748Z,1.75
2023-02-27T00:34:42.521Z,1.27
2023-02-27T00:37:09.280Z,1.27
2023-02-27T00:39:35.996Z,1.13
2023-02-27T00:42:02.747Z,1.80
2023-02-27T00:44:29.461Z,1.30
2023-02-27T00:46:56.211Z,1.65
2023-02-27T00:49:22.959Z,1.40
2023-02-27T00:51:49.692Z,1.52
2023-02-27T00:54:16.410Z,1.30
2023-02-27T00:56:43.185Z,1.13
2023-02-27T00:59:09.918Z,1.30
2023-02-27T01:01:36.650Z,1.50
2023-02-27T01:04:03.520Z,1.33
2023-02-27T01:06:30.263Z,2.25
2023-02-27T01:08:57.011Z,1.30
2023-02-27T01:11:24.781Z,1.20
2023-02-27T01:13:51.694Z,1.70
2023-02-27T01:16:18.435Z,1.38
2023-02-27T01:18:45.213Z,1.05
2023-02-27T01:21:11.975Z,1.55
2023-02-27T01:23:38.680Z,1.48
2023-02-27T01:26:05.497Z,1.20
2023-02-27T01:28:32.273Z,1.40
2023-02-27T01:30:59.071Z,1.30
2023-02-27T01:33:26.014Z,1.52
2023-02-27T01:35:52.766Z,1.30
2023-02-27T01:38:19.798Z,1.50
2023-02-27T01:40:46.519Z,1.33
2023-02-27T01:43:17.994Z,1.55
2023-02-27T01:45:50.545Z,1.08
2023-02-27T01:48:31.539Z,1.15
2023-02-27T01:51:14.491Z,1.20
2023-02-27T01:53:43.851Z,1.20
2023-02-27T01:56:28.054Z,1.30
2023-02-27T01:59:01.849Z,1.02
2023-02-27T02:01:30.970Z,1.15
2023-02-27T02:04:11.783Z,1.33
2023-02-27T02:06:42.614Z,0.90
2023-02-27T02:09:10.669Z,1.30
2023-02-27T02:11:38.062Z,1.30
2023-02-27T02:14:05.594Z,1.20
2023-02-27T02:17:14.978Z,1.02
2023-02-27T02:20:22.491Z,1.17
2023-02-27T02:23:26.144Z,1.02
2023-02-27T02:26:25.016Z,1.33
2023-02-27T02:29:09.875Z,1.30
2023-02-27T02:32:05.908Z,0.90
2023-02-27T02:35:32.998Z,1.20
2023-02-27T02:38:05.532Z,1.25
2023-02-27T02:40:54.036Z,1.10
2023-02-27T02:43:55.381Z,1.40
2023-02-27T02:46:56.030Z,1.02
2023-02-27T02:49:58.001Z,1.58
2023-02-27T02:52:48.850Z,1.30
2023-02-27T02:55:31.067Z,1.60
2023-02-27T02:58:32.487Z,0.98
2023-02-27T03:01:24.807Z,1.33
2023-02-27T03:04:04.082Z,1.48
2023-02-27T03:06:42.205Z,1.27
2023-02-27T03:09:28.959Z,1.63
2023-02-27T03:11:59.036Z,1.23
2023-02-27T03:14:33.596Z,1.30
2023-02-27T03:17:09.989Z,1.65
2023-02-27T03:19:59.785Z,1.48
2023-02-27T03:22:36.860Z,1.40
2023-02-27T03:25:08.497Z,1.70
2023-02-27T03:27:43.455Z,1.52
2023-02-27T03:30:23.426Z,1.60
2023-02-27T03:33:06.302Z,1.55
2023-02-27T03:36:10.603Z,1.40
2023-02-27T03:39:02.200Z,1.90
2023-02-27T03:41:39.162Z,1.55
2023-02-27T03:44:37.005Z,1.20
2023-02-27T03:47:03.961Z,1.58
2023-02-27T03:49:30.795Z,1.55
2023-02-27T03:51:57.514Z,1.50
2023-02-27T03:54:36.149Z,1.83
2023-02-27T03:57:07.379Z,1.20
2023-02-27T03:59:36.077Z,1.67
2023-02-27T04:02:04.147Z,1.35
2023-02-27T04:04:33.107Z,1.27
2023-02-27T04:07:25.482Z,1.23
2023-02-27T04:10:21.482Z,1.42
2023-02-27T04:13:03.168Z,1.40
2023-02-27T04:15:54.773Z,1.98
2023-02-27T04:18:39.521Z,1.90
2023-02-27T04:21:48.085Z,1.65
2023-02-27T04:24:48.651Z,1.63
2023-02-27T04:27:46.315Z,1.83
2023-02-27T04:30:27.817Z,1.80
2023-02-27T04:33:09.685Z,1.60
2023-02-27T04:35:45.909Z,1.60
2023-02-27T04:38:27.691Z,1.83
2023-02-27T04:41:07.455Z,1.67
2023-02-27T04:43:36.153Z,1.77
2023-02-27T04:46:05.286Z,1.48
2023-02-27T04:48:46.947Z,1.90
2023-02-27T04:51:23.226Z,1.83
2023-02-27T04:53:57.765Z,1.38
2023-02-27T04:56:34.951Z,1.80
2023-02-27T04:59:17.666Z,1.45
2023-02-27T05:01:53.686Z,1.65
2023-02-27T05:04:24.427Z,1.92
2023-02-27T05:06:54.254Z,2.30
2023-02-27T05:09:30.911Z,2.00
2023-02-27T05:12:17.130Z,2.40
2023-02-27T05:14:56.040Z,1.67
2023-02-27T05:17:30.783Z,1.55
2023-02-27T05:19:57.851Z,1.73
2023-02-27T05:22:33.713Z,1.67
2023-02-27T05:25:30.961Z,1.80
2023-02-27T05:28:34.680Z,1.85
2023-02-27T05:31:13.084Z,1.95
2023-02-27T05:33:48.918Z,2.00
2023-02-27T05:36:34.224Z,1.75
2023-02-27T06:02:47.414Z,1.80
2023-02-27T06:05:17.150Z,1.60
2023-02-27T06:07:43.854Z,1.88
2023-02-27T06:10:19.418Z,2.22
2023-02-27T06:12:46.290Z,2.33
2023-02-27T06:15:14.124Z,2.53
2023-02-27T06:17:41.066Z,2.97
2023-02-27T06:20:09.767Z,3.00
2023-02-27T06:22:36.591Z,2.88
2023-02-27T06:25:03.877Z,2.22
2023-02-27T06:27:30.642Z,2.92
2023-02-27T06:29:57.684Z,3.17
2023-02-27T06:32:25.571Z,3.47
2023-02-27T06:34:53.307Z,2.83
2023-02-27T06:37:21.696Z,2.75
2023-02-27T06:39:48.449Z,2.80
2023-02-27T06:42:15.360Z,3.25
2023-02-27T06:44:42.341Z,3.05
2023-02-27T06:47:09.367Z,3.20
2023-02-27T06:49:36.420Z,3.20
2023-02-27T06:52:03.173Z,2.70
2023-02-27T06:54:29.904Z,3.35
2023-02-27T06:56:56.637Z,2.50
2023-02-27T06:59:23.477Z,2.75
2023-02-27T07:01:50.256Z,2.78
2023-02-27T07:04:17.794Z,2.80
2023-02-27T07:07:32.613Z,3.40
2023-02-27T07:09:31.884Z,3.08
2023-02-27T07:11:58.768Z,3.80
2023-02-27T07:14:25.701Z,3.17
2023-02-27T07:16:55.678Z,3.88
2023-02-27T07:19:24.133Z,3.85
2023-02-27T07:21:51.218Z,3.63
2023-02-27T07:24:18.031Z,4.88
2023-02-27T07:26:44.992Z,3.58
2023-02-27T07:29:11.961Z,3.60
2023-02-27T07:31:38.828Z,3.38
2023-02-27T07:34:05.696Z,3.53
2023-02-27T07:36:33.844Z,3.50
2023-02-27T07:39:00.645Z,3.30
2023-02-27T07:41:30.714Z,3.22
2023-02-27T07:43:58.074Z,4.05
2023-02-27T07:46:27.478Z,3.05
2023-02-27T07:48:55.231Z,3.00
2023-02-27T07:51:22.222Z,2.75
2023-02-27T07:53:48.980Z,2.80
2023-02-27T07:56:15.840Z,2.90
2023-02-27T07:58:42.597Z,3.30
2023-02-27T08:01:09.335Z,3.17
2023-02-27T08:03:36.055Z,3.08
2023-02-27T08:06:02.802Z,3.50
2023-02-27T08:08:29.592Z,3.08
2023-02-27T08:10:56.375Z,3.40
2023-02-27T08:13:42.215Z,3.58
2023-02-27T08:16:09.892Z,4.07
2023-02-27T08:18:36.850Z,3.80
2023-02-27T08:21:04.987Z,3.47
2023-02-27T08:23:34.416Z,3.78
2023-02-27T08:26:02.587Z,4.25
2023-02-27T08:28:29.815Z,3.55
2023-02-27T08:30:56.597Z,4.22
2023-02-27T08:33:24.522Z,3.72
2023-02-27T08:35:51.710Z,3.30
2023-02-27T08:38:18.442Z,4.05
2023-02-27T08:40:45.317Z,3.50
2023-02-27T08:43:12.183Z,3.10
2023-02-27T08:45:39.045Z,3.97
2023-02-27T08:48:06.371Z,3.70
2023-02-27T08:50:33.102Z,4.10
2023-02-27T08:52:59.836Z,4.10
2023-02-27T08:55:26.696Z,3.80
2023-02-27T08:57:53.429Z,3.95
2023-02-27T09:00:21.385Z,4.20
2023-02-27T09:02:48.250Z,3.85
2023-02-27T09:05:15.071Z,4.68
2023-02-27T09:07:42.023Z,4.57
2023-02-27T09:10:09.659Z,4.18
2023-02-27T09:12:36.528Z,4.30
2023-02-27T09:15:05.265Z,3.08
2023-02-27T09:17:32.502Z,3.33
2023-02-27T09:19:59.239Z,4.13
2023-02-27T09:22:25.970Z,3.60
2023-02-27T09:24:52.714Z,4.78
2023-02-27T09:27:19.476Z,5.30
2023-02-27T09:29:46.256Z,4.85
2023-02-27T09:32:13.169Z,4.63
2023-02-27T09:34:39.968Z,4.40
2023-02-27T09:37:06.704Z,4.57
2023-02-27T09:39:33.446Z,4.90
2023-02-27T09:42:17.137Z,4.72
2023-02-27T09:44:50.955Z,4.70
2023-02-27T09:47:45.980Z,4.32
2023-02-27T09:50:42.800Z,4.72
2023-02-27T09:53:40.111Z,4.20
2023-02-27T09:56:29.516Z,4.07
2023-02-27T09:59:34.382Z,4.75
2023-02-27T10:02:34.955Z,3.30
2023-02-27T10:05:37.879Z,3.17
2023-02-27T10:08:33.023Z,3.10
2023-02-27T10:11:12.052Z,3.85
2023-02-27T10:14:01.834Z,3.42
2023-02-27T10:16:30.124Z,3.60
2023-02-27T10:19:02.259Z,3.85
2023-02-27T10:21:40.049Z,3.58
2023-02-27T10:24:29.300Z,3.60
2023-02-27T10:26:59.283Z,3.10
2023-02-27T10:29:39.865Z,2.85
2023-02-27T10:32:31.994Z,3.53
2023-02-27T10:35:08.972Z,3.20
2023-02-27T10:37:42.057Z,2.95
2023-02-27T10:40:15.363Z,2.83
2023-02-27T10:42:43.307Z,2.85
2023-02-27T10:45:16.621Z,3.13
2023-02-27T10:47:44.200Z,2.80
2023-02-27T10:50:29.444Z,3.10
2023-02-27T10:53:00.176Z,2.67
2023-02-27T10:55:34.256Z,2.35
2023-02-27T10:58:03.192Z,2.85
2023-02-27T11:00:54.949Z,2.70
2023-02-27T11:03:28.771Z,2.95
2023-02-27T11:06:06.972Z,2.85
2023-02-27T11:08:35.841Z,2.55
2023-02-27T11:11:12.358Z,2.38
2023-02-27T11:13:44.308Z,2.70
2023-02-27T11:16:23.373Z,2.67
2023-02-27T11:18:52.253Z,2.90
2023-02-27T11:21:27.248Z,2.05
2023-02-27T11:24:09.102Z,2.13
2023-02-27T11:26:42.270Z,2.35
2023-02-27T11:29:18.519Z,2.22
2023-02-27T11:31:48.796Z,3.05
2023-02-27T11:34:32.399Z,2.63
2023-02-27T11:37:31.902Z,2.40
2023-02-27T11:40:12.760Z,1.75
2023-02-27T11:42:56.457Z,2.10
2023-02-27T11:46:05.178Z,2.00
2023-02-27T11:48:35.834Z,1.77
2023-02-27T11:51:25.427Z,1.80
2023-02-27T11:54:39.185Z,1.77
2023-02-27T11:57:26.929Z,2.13
2023-02-27T12:00:19.612Z,2.08
2023-02-27T12:03:00.847Z,1.73
2023-02-27T12:05:39.080Z,1.77
2023-02-27T12:08:17.494Z,1.70
2023-02-27T12:10:59.342Z,2.00
2023-02-27T12:13:40.214Z,2.03
2023-02-27T12:16:22.571Z,2.00
2023-02-27T12:18:56.871Z,1.90
2023-02-27T12:21:43.395Z,1.63
2023-02-27T12:24:26.991Z,1.85
2023-02-27T12:27:09.474Z,1.73
2023-02-27T12:29:41.975Z,1.60
2023-02-27T12:32:22.356Z,1.67
2023-02-27T12:35:24.695Z,1.40
2023-02-27T12:37:52.172Z,1.40
2023-02-27T12:40:20.883Z,1.60
2023-02-27T12:43:16.165Z,1.80
2023-02-27T12:46:06.768Z,1.30
2023-02-27T12:48:47.681Z,2.05
2023-02-27T12:51:51.288Z,2.42
2023-02-27T12:54:40.523Z,1.50
2023-02-27T12:57:54.466Z,2.05
2023-02-27T13:00:26.583Z,2.28
2023-02-27T13:03:34.465Z,1.90
2023-02-27T13:06:24.002Z,2.13
2023-02-27T13:09:12.068Z,2.15
2023-02-27T13:12:00.305Z,2.10
2023-02-27T13:14:48.630Z,1.73
2023-02-27T13:17:39.789Z,1.42
2023-02-27T13:20:21.848Z,2.42
2023-02-27T13:23:33.472Z,1.70
2023-02-27T13:26:13.687Z,1.58
2023-02-27T13:28:40.652Z,1.75
2023-02-27T13:31:34.281Z,1.80
2023-02-27T13:34:23.160Z,1.67
2023-02-27T13:37:10.459Z,1.70
2023-02-27T13:39:49.052Z,1.75
2023-02-27T13:42:28.078Z,1.80
2023-02-27T13:45:18.948Z,1.75
2023-02-27T13:47:49.850Z,1.70
2023-02-27T13:50:21.153Z,1.83
2023-02-27T13:52:48.808Z,1.80
2023-02-27T13:55:35.294Z,4.03
2023-02-27T13:58:04.333Z,2.13
2023-02-27T14:00:37.767Z,1.90
2023-02-27T14:03:17.407Z,1.55
2023-02-27T14:05:47.396Z,1.50
2023-02-27T14:08:23.299Z,1.77
2023-02-27T14:11:39.577Z,2.22
2023-02-27T14:14:10.087Z,2.10
2023-02-27T14:16:39.915Z,1.85
2023-02-27T14:19:15.777Z,1.60
2023-02-27T14:22:03.234Z,2.13
2023-02-27T14:25:03.122Z,1.95
2023-02-27T14:27:56.890Z,1.80
2023-02-27T14:30:37.749Z,1.95
2023-02-27T14:33:40.334Z,2.08
2023-02-27T14:36:24.761Z,1.70
2023-02-27T14:38:57.365Z,2.00
2023-02-27T14:41:55.368Z,3.10
2023-02-27T14:44:25.881Z,2.30
2023-02-27T14:46:55.255Z,1.63
2023-02-27T14:49:34.488Z,2.13
2023-02-27T14:52:29.577Z,1.80
2023-02-27T14:55:27.625Z,1.88
2023-02-27T14:58:02.178Z,1.45
2023-02-27T15:01:03.481Z,1.95
2023-02-27T15:03:52.755Z,2.75
2023-02-27T15:06:37.118Z,2.28
2023-02-27T15:09:04.763Z,3.03
2023-02-27T15:11:31.626Z,2.58
2023-02-27T15:14:06.325Z,2.28
2023-02-27T15:16:39.627Z,2.38
2023-02-27T15:19:16.639Z,2.00
2023-02-27T15:22:05.418Z,2.45
2023-02-27T15:24:49.256Z,2.50
2023-02-27T15:27:21.164Z,2.30
2023-02-27T15:29:59.696Z,1.63
2023-02-27T15:32:28.592Z,2.28
2023-02-27T15:34:58.225Z,2.17
2023-02-27T15:37:32.718Z,1.85
2023-02-27T15:40:00.955Z,2.30
2023-02-27T15:42:36.297Z,2.25
2023-02-27T15:45:06.159Z,2.50
2023-02-27T15:47:33.953Z,2.30
2023-02-27T15:50:11.078Z,2.03
2023-02-27T15:53:05.470Z,2.10
2023-02-27T15:55:37.455Z,1.85
2023-02-27T15:58:24.249Z,1.98
2023-02-27T16:01:01.750Z,2.10
2023-02-27T16:03:36.408Z,1.90
2023-02-27T16:06:10.889Z,2.40
2023-02-27T16:08:45.085Z,2.08
2023-02-27T16:11:20.425Z,3.20
2023-02-27T16:13:48.006Z,2.15
2023-02-27T16:16:38.821Z,2.72
2023-02-27T16:19:27.979Z,1.42
2023-02-27T16:22:16.420Z,2.67
2023-02-27T16:24:43.936Z,2.63
2023-02-27T16:27:28.741Z,2.90
2023-02-27T16:30:02.323Z,2.75
2023-02-27T16:32:43.846Z,3.53
2023-02-27T16:35:23.020Z,4.50
2023-02-27T16:37:50.661Z,4.22
2023-02-27T16:40:20.310Z,3.60
2023-02-27T16:42:47.237Z,2.17
2023-02-27T16:45:27.372Z,2.65
2023-02-27T16:47:57.715Z,2.67
2023-02-27T16:50:38.435Z,2.55
2023-02-27T16:53:05.183Z,3.47
2023-02-27T16:55:33.756Z,2.15
2023-02-27T16:58:00.792Z,2.55
2023-02-27T17:00:27.599Z,3.20
2023-02-27T17:02:54.369Z,3.58
2023-02-27T17:05:21.240Z,2.95
2023-02-27T17:07:48.645Z,2.50
2023-02-27T17:10:18.420Z,3.70
2023-02-27T17:12:46.839Z,3.60
2023-02-27T17:15:14.513Z,3.30
2023-02-27T17:17:41.795Z,3.13
2023-02-27T17:20:11.138Z,2.70
2023-02-27T17:22:40.825Z,4.85
2023-02-27T17:25:09.398Z,3.40
2023-02-27T17:27:37.011Z,2.30
2023-02-27T17:30:05.203Z,2.53
2023-02-27T17:32:31.980Z,2.85
2023-02-27T17:34:59.200Z,3.20
2023-02-27T17:37:26.999Z,2.40
2023-02-27T17:39:54.736Z,2.90
2023-02-27T17:42:22.778Z,2.85
2023-02-27T17:44:49.512Z,2.80
2023-02-27T17:47:16.241Z,3.50
2023-02-27T17:49:42.988Z,2.50
2023-02-27T17:52:10.026Z,3.53
2023-02-27T17:54:37.054Z,4.20
2023-02-27T17:57:04.761Z,4.07
2023-02-27T17:59:31.601Z,3.13
2023-02-27T18:01:59.081Z,3.50
2023-02-27T18:04:25.959Z,3.15
2023-02-27T18:06:52.863Z,3.08
2023-02-27T18:09:19.599Z,3.28
2023-02-27T18:11:46.363Z,4.82
2023-02-27T18:14:13.772Z,3.35
2023-02-27T18:16:41.301Z,4.55
2023-02-27T18:19:08.119Z,4.70
2023-02-27T18:21:35.434Z,4.32
2023-02-27T18:24:02.545Z,3.83
2023-02-27T18:26:32.191Z,3.53
2023-02-27T18:29:08.302Z,4.60
2023-02-27T18:31:45.151Z,3.97
2023-02-27T18:34:12.984Z,4.47
2023-02-27T18:36:39.876Z,3.08
2023-02-27T18:39:07.706Z,3.20
2023-02-27T18:41:35.446Z,2.95
2023-02-27T18:44:02.937Z,2.95
2023-02-27T18:46:30.001Z,3.60
2023-02-27T18:48:57.427Z,3.10
2023-02-27T18:51:24.783Z,3.53
2023-02-27T18:53:52.021Z,3.15
2023-02-27T18:56:22.798Z,3.60
2023-02-27T18:58:50.748Z,3.60
2023-02-27T19:01:27.223Z,3.85
2023-02-27T19:04:00.019Z,6.60
2023-02-27T19:06:28.001Z,5.38
2023-02-27T19:08:54.966Z,2.80
2023-02-27T19:11:33.045Z,2.80
2023-02-27T19:14:02.031Z,3.85
2023-02-27T19:16:29.458Z,3.53
2023-02-27T19:18:58.251Z,3.33
2023-02-27T19:21:26.553Z,3.60
2023-02-27T19:23:53.690Z,2.83
2023-02-27T19:26:21.378Z,2.35
2023-02-27T19:28:51.877Z,2.60
2023-02-27T19:31:18.669Z,2.42
2023-02-27T19:33:45.517Z,2.17
2023-02-27T19:36:17.644Z,2.40
2023-02-27T19:38:45.647Z,1.90
2023-02-27T19:41:14.523Z,2.88
2023-02-27T19:43:41.760Z,1.95
2023-02-27T19:46:22.145Z,1.80
2023-02-27T19:48:51.787Z,2.53
2023-02-27T19:51:18.894Z,2.60
2023-02-27T19:53:48.316Z,4.10
2023-02-27T19:56:19.882Z,3.50
2023-02-27T19:58:47.979Z,4.05
2023-02-27T20:01:27.373Z,2.95
2023-02-27T20:03:55.961Z,3.20
2023-02-27T20:06:26.468Z,4.60
2023-02-27T20:08:57.155Z,3.08
2023-02-27T20:11:24.500Z,3.30
2023-02-27T20:13:53.322Z,3.63
2023-02-27T20:16:24.464Z,3.38
2023-02-27T20:18:51.359Z,3.58
2023-02-27T20:21:24.598Z,2.97
2023-02-27T20:23:53.138Z,3.15
2023-02-27T20:26:36.140Z,4.32
2023-02-27T20:29:10.834Z,4.72
2023-02-27T20:31:41.662Z,5.28
2023-02-27T20:34:11.405Z,5.25
2023-02-27T20:36:40.302Z,5.03
2023-02-27T20:39:10.183Z,3.92
2023-02-27T20:41:37.783Z,4.32
2023-02-27T20:44:05.727Z,3.65
2023-02-27T20:46:32.577Z,4.03
2023-02-27T20:49:01.856Z,3.83
2023-02-27T20:51:35.042Z,3.30
2023-02-27T20:54:04.280Z,3.00
2023-02-27T20:56:37.240Z,5.53
2023-02-27T20:59:08.005Z,4.47
2023-02-27T21:01:36.633Z,3.83
2023-02-27T21:04:05.402Z,3.97
2023-02-27T21:06:32.398Z,3.65
2023-02-27T21:09:04.961Z,3.03
2023-02-27T21:11:33.217Z,3.50
2023-02-27T21:14:09.128Z,3.08
2023-02-27T21:16:36.995Z,3.60
2023-02-27T21:19:04.167Z,3.40
2023-02-27T21:21:33.439Z,3.72
2023-02-27T21:24:01.474Z,3.72
2023-02-27T21:26:38.129Z,3.40
2023-02-27T21:29:20.204Z,3.30
2023-02-27T21:31:49.248Z,3.22
2023-02-27T21:34:24.190Z,3.38
2023-02-27T21:36:51.956Z,3.72
2023-02-27T21:39:26.061Z,3.30
2023-02-27T21:41:53.209Z,3.15
2023-02-27T21:44:24.899Z,3.97
2023-02-27T21:46:53.592Z,3.30
2023-02-27T21:49:24.032Z,3.95
2023-02-27T21:51:51.028Z,2.90
2023-02-27T21:54:19.381Z,3.22
2023-02-27T21:56:48.469Z,3.17
2023-02-27T21:59:16.782Z,3.53
2023-02-27T22:01:47.307Z,3.35
2023-02-27T22:04:16.506Z,3.75
2023-02-27T22:06:43.570Z,3.40
2023-02-27T22:09:10.318Z,3.63
2023-02-27T22:11:37.178Z,3.70
2023-02-27T22:14:06.249Z,3.50
2023-02-27T22:16:33.170Z,3.88
2023-02-27T22:19:04.078Z,3.80
2023-02-27T22:21:31.164Z,3.13
2023-02-27T22:23:58.579Z,3.67
2023-02-27T22:26:28.239Z,3.67
2023-02-27T22:28:59.489Z,3.88
2023-02-27T22:31:33.838Z,3.80
2023-02-27T22:34:17.741Z,3.42
2023-02-27T22:36:48.475Z,3.10
2023-02-27T22:39:15.177Z,2.92
2023-02-27T22:41:42.541Z,3.97
2023-02-27T22:44:13.073Z,2.83
2023-02-27T22:46:44.262Z,3.58
2023-02-27T22:49:20.734Z,3.60
2023-02-27T22:51:50.850Z,3.42
2023-02-27T22:54:19.954Z,3.70
2023-02-27T22:56:49.465Z,3.30
2023-02-27T22:59:16.635Z,3.40
2023-02-27T23:01:43.456Z,3.33
2023-02-27T23:04:11.596Z,3.72
2023-02-27T23:06:43.803Z,4.35
2023-02-27T23:09:18.823Z,5.53
2023-02-27T23:11:46.349Z,4.95
2023-02-27T23:14:14.099Z,4.10
2023-02-27T23:16:45.278Z,4.32
2023-02-27T23:19:15.101Z,4.00
2023-02-27T23:21:42.100Z,4.63
2023-02-27T23:24:15.636Z,4.93
2023-02-27T23:26:49.415Z,4.78
2023-02-27T23:29:16.722Z,3.65
2023-02-27T23:31:43.492Z,4.03
2023-02-27T23:34:10.622Z,3.83
2023-02-27T23:36:38.774Z,3.67
2023-02-27T23:39:06.682Z,3.95
2023-02-27T23:41:33.921Z,4.15
2023-02-27T23:44:19.121Z,3.70
2023-02-27T23:46:45.893Z,3.90
2023-02-27T23:49:12.751Z,3.85
2023-02-27T23:51:39.444Z,3.85
2023-02-27T23:54:06.162Z,4.25
2023-02-27T23:56:33.364Z,4.90
2023-02-27T23:59:04.380Z,4.00
